KFAR

Hector International Airport

Fargo, North Dakota, USA
METAR KFAR 212253Z 31010KT 10SM CLR 24/08 A3015 RMK AO2 SLP210 T02440078
Observed Flight Rules
Aug-21 @ 22:53 UTC (53 minutes ago) Visual Flight Rules
Wind Visibility Clouds
310° at 10 knots 10 miles
  • Clear skies
Temperatures Readings
Current 24°C / 75°F
Dewpoint 8°C / 46°F
Humidity 36%
Altimeter 30.15" Hg
Pressure 1021 hPa
Elevation 277
METAR KFAR 212253Z 31010KT 10SM CLR 24/08 A3015 RMK AO2 SLP210 T02440078
Observed Flight Rules
Aug-21 @ 22:53 UTC
(53 minutes ago)
VFR
Wind Visibility
310° at 10 knots 10 miles
Clouds
  • Clear skies
Temperature Dewpoint
24°C / 75°F 8°C / 46°F
Humidity Altimeter Pressure
36% 30.15" Hg 1021 hPa